Aviation Digital Data Service (ADDS)

Output produced by TAFs form (0013 UTC 17 December 2017)
found at http://www.aviationweather.gov/adds/tafs/
 
KPOU 162326Z 1700/1724 23005KT P6SM OVC080 
     FM170500 26003KT P6SM FEW080 SCT250 
     FM171500 33003KT P6SM BKN200